Time;durP1;ratioP1;P1;durP2;ratioP2;P2;SDS_P1;SDS_P2;PMS_P1;PMS_P2;Temp;Humidity;BMP_temperature;BMP_pressure;BME280_temperature;BME280_humidity;BME280_pressure;Samples;Min_cycle;Max_cycle;Signal;HPM_P1;HPM_P2
2021/01/28 00:04:44;;;;;;;17.95;14.25;;;;;;;;;;6020521;23;20195;-88
2021/01/28 00:11:06;;;;;;;14.88;12.30;;;;;;;;;;5943089;24;20219;-88
2021/01/28 00:14:08;;;;;;;16.10;14.52;;;;;;;;;;5945741;24;20153;-87
2021/01/28 00:20:55;;;;;;;17.90;16.08;;;;;;;;;;5863145;24;20186;-87
2021/01/28 01:45:34;;;;;;;21.52;19.15;;;;;;;;;;6168638;23;20305;-87
2021/01/28 01:48:50;;;;;;;;;;;;;;;;;;;;;
2021/01/28 01:52:21;;;;;;;20.33;16.77;;;;;;;;;;6167656;23;20190;-87
2021/01/28 01:58:32;;;;;;;22.15;18.23;;;;;;;;;;6175581;23;20179;-87
2021/01/28 02:01:22;;;;;;;22.23;19.92;;;;;;;;;;6196258;23;20672;-87
2021/01/28 02:04:25;;;;;;;;;;;;;;;;;;;;;
2021/01/28 02:07:30;;;;;;;22.10;20.00;;;;;;;;;;6249682;22;20168;-88
2021/01/28 02:10:42;;;;;;;22.10;19.63;;;;;;;;;;6248086;22;20188;-87
2021/01/28 02:13:46;;;;;;;25.10;21.98;;;;;;;;;;6296444;22;20489;-87
2021/01/28 02:16:49;;;;;;;;;;;;;;;;;;;;;
2021/01/28 02:23:42;;;;;;;;;;;;;;;;;;;;;
2021/01/28 02:27:05;;;;;;;23.23;18.40;;;;;;;;;;6205531;23;20175;-87
2021/01/28 02:31:15;;;;;;;22.65;19.77;;;;;;;;;;6188184;23;20756;-87
2021/01/28 02:33:51;;;;;;;24.15;21.30;;;;;;;;;;6147008;23;20343;-88
2021/01/28 02:37:37;;;;;;;;;;;;;;;;;;;;;
2021/01/28 02:41:07;;;;;;;23.38;18.63;;;;;;;;;;6145794;23;20168;-87
2021/01/28 02:47:58;;;;;;;;;;;;;;;;;;;;;
2021/01/28 02:50:44;;;;;;;23.35;20.95;;;;;;;;;;6177984;23;20198;-87
2021/01/28 02:54:02;;;;;;;19.50;17.48;;;;;;;;;;6179214;23;20158;-87
2021/01/28 02:56:37;;;;;;;25.17;21.95;;;;;;;;;;6186112;23;20153;-88
2021/01/28 02:59:46;;;;;;;23.45;19.15;;;;;;;;;;6191645;23;20200;-87
2021/01/28 03:02:51;;;;;;;23.85;19.30;;;;;;;;;;6197100;22;20168;-87
2021/01/28 03:06:12;;;;;;;21.00;18.95;;;;;;;;;;6238105;22;20149;-86
2021/01/28 03:09:13;;;;;;;;;;;;;;;;;;;;;
2021/01/28 03:15:41;;;;;;;19.02;17.02;;;;;;;;;;6194655;23;20151;-87
2021/01/28 03:18:43;;;;;;;;;;;;;;;;;;;;;
2021/01/28 03:21:44;;;;;;;20.55;18.45;;;;;;;;;;6257084;22;20154;-86
2021/01/28 03:25:00;;;;;;;23.05;19.35;;;;;;;;;;6208480;22;20152;-86
2021/01/28 03:30:58;;;;;;;21.65;17.80;;;;;;;;;;6257237;22;20202;-88
2021/01/28 03:34:12;;;;;;;;;;;;;;;;;;;;;
2021/01/28 03:40:33;;;;;;;19.75;17.35;;;;;;;;;;6225446;22;20173;-86
2021/01/28 03:43:32;;;;;;;;;;;;;;;;;;;;;
2021/01/28 03:46:22;;;;;;;21.77;18.67;;;;;;;;;;6258538;22;20149;-87
2021/01/28 03:52:07;;;;;;;23.60;20.80;;;;;;;;;;6235728;22;20172;-87
2021/01/28 03:58:23;;;;;;;26.90;23.83;;;;;;;;;;6192469;23;20174;-86
2021/01/28 04:01:44;;;;;;;21.38;19.10;;;;;;;;;;6241585;22;20145;-86
2021/01/28 04:08:34;;;;;;;24.85;21.23;;;;;;;;;;6285947;22;20197;-87
2021/01/28 04:14:06;;;;;;;23.90;18.60;;;;;;;;;;6258054;22;20228;-87
2021/01/28 04:16:58;;;;;;;;;;;;;;;;;;;;;
2021/01/28 04:20:03;;;;;;;;;;;;;;;;;;;;;
2021/01/28 04:23:20;;;;;;;20.65;18.48;;;;;;;;;;6286554;22;20188;-88
2021/01/28 04:26:35;;;;;;;;;;;;;;;;;;;;;
2021/01/28 04:29:43;;;;;;;;;;;;;;;;;;;;;
2021/01/28 04:36:27;;;;;;;;;;;;;;;;;;;;;
2021/01/28 04:39:12;;;;;;;23.85;18.60;;;;;;;;;;6292548;22;20195;-84
2021/01/28 04:41:41;;;;;;;21.38;18.60;;;;;;;;;;6289729;22;20172;-82
2021/01/28 04:44:11;;;;;;;21.20;18.55;;;;;;;;;;6292325;22;20129;-84
2021/01/28 04:47:05;;;;;;;25.20;20.15;;;;;;;;;;6290973;22;20193;-82
2021/01/28 04:49:41;;;;;;;22.88;20.25;;;;;;;;;;6290146;22;20195;-84
2021/01/28 04:52:42;;;;;;;19.95;17.75;;;;;;;;;;6284667;22;20172;-81
2021/01/28 04:55:50;;;;;;;27.40;19.67;;;;;;;;;;6323419;22;20190;-83
2021/01/28 05:01:39;;;;;;;26.80;21.38;;;;;;;;;;6224147;23;20158;-84
2021/01/28 05:04:58;;;;;;;;;;;;;;;;;;;;;
2021/01/28 05:07:50;;;;;;;25.77;19.27;;;;;;;;;;6224978;23;20154;-81
2021/01/28 05:11:03;;;;;;;21.30;19.13;;;;;;;;;;6175634;23;20307;-82
2021/01/28 05:13:59;;;;;;;23.08;20.73;;;;;;;;;;6137859;23;20490;-86
2021/01/28 05:17:26;;;;;;;24.65;19.83;;;;;;;;;;6170017;23;20156;-84
2021/01/28 05:20:28;;;;;;;22.30;17.83;;;;;;;;;;6156823;23;20653;-84
2021/01/28 05:23:36;;;;;;;24.08;21.08;;;;;;;;;;6218035;23;20253;-84
2021/01/28 05:26:55;;;;;;;;;;;;;;;;;;;;;
2021/01/28 05:29:43;;;;;;;22.67;19.63;;;;;;;;;;6167898;23;20175;-85
2021/01/28 05:32:52;;;;;;;;;;;;;;;;;;;;;
2021/01/28 05:35:57;;;;;;;24.35;20.30;;;;;;;;;;6242669;22;20609;-84
2021/01/28 05:38:46;;;;;;;24.77;19.15;;;;;;;;;;6308100;22;20144;-83
2021/01/28 05:41:40;;;;;;;21.42;19.23;;;;;;;;;;6283814;22;20157;-82
2021/01/28 05:44:32;;;;;;;22.75;19.95;;;;;;;;;;6283125;22;20140;-84
2021/01/28 05:47:31;;;;;;;;;;;;;;;;;;;;;
2021/01/28 05:50:31;;;;;;;25.95;19.30;;;;;;;;;;6281913;22;20271;-85
2021/01/28 05:53:22;;;;;;;23.73;21.25;;;;;;;;;;6281195;22;20627;-85
2021/01/28 05:56:16;;;;;;;24.45;21.85;;;;;;;;;;6281732;22;20209;-85
2021/01/28 05:59:14;;;;;;;25.13;20.85;;;;;;;;;;6256789;22;20156;-85
2021/01/28 06:02:13;;;;;;;24.55;21.77;;;;;;;;;;6255605;22;20160;-84
2021/01/28 06:06:16;;;;;;;28.20;23.38;;;;;;;;;;6215150;22;20149;-84
2021/01/28 06:12:42;;;;;;;25.08;19.83;;;;;;;;;;6222451;23;20178;-82
2021/01/28 06:15:17;;;;;;;23.90;20.00;;;;;;;;;;6198244;23;20177;-85
2021/01/28 06:18:57;;;;;;;23.92;19.83;;;;;;;;;;6220190;23;20193;-84
2021/01/28 06:25:13;;;;;;;26.80;22.15;;;;;;;;;;6134742;23;20160;-85
2021/01/28 06:28:00;;;;;;;31.77;22.65;;;;;;;;;;6131761;23;20187;-82
2021/01/28 06:30:59;;;;;;;22.83;18.73;;;;;;;;;;6129979;23;20567;-83
2021/01/28 06:34:07;;;;;;;25.90;21.10;;;;;;;;;;6128179;23;20172;-81
2021/01/28 06:37:23;;;;;;;;;;;;;;;;;;;;;
2021/01/28 06:40:50;;;;;;;26.60;20.95;;;;;;;;;;6130175;23;20567;-85
2021/01/28 06:43:47;;;;;;;39.22;24.42;;;;;;;;;;6077296;23;20157;-85
2021/01/28 06:46:37;;;;;;;23.90;18.42;;;;;;;;;;6272504;22;20160;-85
2021/01/28 06:49:23;;;;;;;24.08;19.73;;;;;;;;;;6281360;22;20181;-83
2021/01/28 06:51:57;;;;;;;24.52;19.75;;;;;;;;;;6284305;22;20228;-83
2021/01/28 06:54:27;;;;;;;22.48;19.08;;;;;;;;;;6284017;22;20134;-83
2021/01/28 06:57:57;;;;;;;28.92;21.73;;;;;;;;;;6162497;23;20183;-85
2021/01/28 07:00:49;;;;;;;31.15;22.65;;;;;;;;;;6138398;23;20280;-84
2021/01/28 07:03:29;;;;;;;;;;;;;;;;;;;;;
2021/01/28 07:06:30;;;;;;;24.45;19.88;;;;;;;;;;6283441;22;20153;-84
2021/01/28 07:09:05;;;;;;;26.02;20.63;;;;;;;;;;6255590;22;20168;-81
2021/01/28 07:11:43;;;;;;;24.48;17.65;;;;;;;;;;6259270;22;20517;-82
2021/01/28 07:14:32;;;;;;;20.80;15.10;;;;;;;;;;6227956;22;20157;-83
2021/01/28 07:17:35;;;;;;;16.55;10.88;;;;;;;;;;6236448;22;20588;-82
2021/01/28 07:20:08;;;;;;;10.93;7.80;;;;;;;;;;6284513;22;20298;-84
2021/01/28 07:22:53;;;;;;;;;;;;;;;;;;;;;
2021/01/28 07:25:25;;;;;;;8.50;6.60;;;;;;;;;;6308526;22;20183;-84
2021/01/28 07:27:59;;;;;;;10.43;6.15;;;;;;;;;;6283912;22;20160;-84
2021/01/28 07:30:39;;;;;;;9.60;8.55;;;;;;;;;;6308759;22;20251;-84
2021/01/28 07:33:14;;;;;;;9.25;5.80;;;;;;;;;;6310797;22;20126;-82
2021/01/28 07:35:58;;;;;;;9.43;7.60;;;;;;;;;;6284622;22;20161;-84
2021/01/28 07:38:54;;;;;;;7.90;6.10;;;;;;;;;;6286002;22;20485;-85
2021/01/28 07:41:53;;;;;;;8.00;7.20;;;;;;;;;;6306072;22;20172;-84
2021/01/28 07:44:50;;;;;;;8.75;7.13;;;;;;;;;;6249503;22;20175;-83
2021/01/28 07:47:36;;;;;;;18.33;12.55;;;;;;;;;;6286114;22;20129;-83
2021/01/28 07:50:25;;;;;;;16.45;14.35;;;;;;;;;;6284600;22;20188;-83
2021/01/28 07:52:55;;;;;;;17.88;13.23;;;;;;;;;;6262918;22;20195;-85
2021/01/28 07:55:37;;;;;;;25.73;16.85;;;;;;;;;;6286904;22;20145;-84
2021/01/28 07:58:04;;;;;;;14.48;11.65;;;;;;;;;;6289011;22;20510;-85
2021/01/28 08:08:02;;;;;;;;;;;;;;;;;;;;;
2021/01/28 09:44:01;;;;;;;12.40;10.15;;;;;;;;;;6203083;22;20166;-87
2021/01/28 09:50:05;;;;;;;14.50;11.68;;;;;;;;;;6220355;22;20175;-87
2021/01/28 10:03:55;;;;;;;;;;;;;;;;;;;;;
2021/01/28 10:06:21;;;;;;;12.20;9.48;;;;;;;;;;6148108;23;20170;-87
2021/01/28 10:08:48;;;;;;;19.85;11.05;;;;;;;;;;6174484;23;20162;-88
2021/01/28 10:11:46;;;;;;;14.77;10.30;;;;;;;;;;6199256;23;20239;-87
2021/01/28 10:14:29;;;;;;;14.25;9.25;;;;;;;;;;6088149;23;20146;-87
2021/01/28 10:17:35;;;;;;;;;;;;;;;;;;;;;
2021/01/28 10:20:43;;;;;;;14.65;10.55;;;;;;;;;;6134121;23;20157;-88
2021/01/28 10:23:14;;;;;;;12.45;10.00;;;;;;;;;;6084668;23;20224;-88
2021/01/28 10:26:06;;;;;;;14.10;9.95;;;;;;;;;;6086338;23;20177;-88
2021/01/28 10:29:05;;;;;;;10.55;8.30;;;;;;;;;;6083542;23;20177;-88
2021/01/28 10:32:09;;;;;;;8.75;7.88;;;;;;;;;;6032681;23;20156;-88
2021/01/28 10:43:33;;;;;;;11.02;8.43;;;;;;;;;;6287557;22;20148;-88
2021/01/28 10:46:28;;;;;;;10.55;7.97;;;;;;;;;;6228650;22;20194;-88
2021/01/28 10:53:07;;;;;;;12.38;10.85;;;;;;;;;;6137094;23;20175;-88
2021/01/28 11:10:15;;;;;;;11.07;9.93;;;;;;;;;;6052002;23;20192;-88
2021/01/28 11:13:17;;;;;;;;;;;;;;;;;;;;;
2021/01/28 11:16:15;;;;;;;12.55;9.35;;;;;;;;;;5966814;24;20172;-88
2021/01/28 11:18:42;;;;;;;12.52;8.70;;;;;;;;;;5945536;24;20149;-86
2021/01/28 11:59:43;;;;;;;8.98;7.20;;;;;;;;;;6227729;23;20169;-87
2021/01/28 12:17:59;;;;;;;9.88;8.65;;;;;;;;;;6165601;23;20227;-88
2021/01/28 13:25:34;;;;;;;6.38;5.20;;;;;;;;;;6231736;23;20197;-89
2021/01/28 14:24:28;;;;;;;;;;;;;;;;;;;;;
2021/01/28 15:16:00;;;;;;;4.55;4.13;;;;;;;;;;6317433;22;20555;-82
2021/01/28 15:18:40;;;;;;;4.75;3.55;;;;;;;;;;6266740;22;20164;-84
2021/01/28 15:21:07;;;;;;;6.43;4.55;;;;;;;;;;6291329;22;20140;-84
2021/01/28 15:23:49;;;;;;;4.28;3.25;;;;;;;;;;6291863;22;20542;-84
2021/01/28 15:47:58;;;;;;;;;;;;;;;;;;;;;
2021/01/28 17:30:05;;;;;;;;;;;;;;;;;;;;;
2021/01/28 17:47:51;;;;;;;;;;;;;;;;;;;;;
2021/01/28 17:51:12;;;;;;;;;;;;;;;;;;;;;
2021/01/28 17:54:41;;;;;;;3.85;3.03;;;;;;;;;;6049668;23;20192;-85
2021/01/28 18:00:43;;;;;;;3.85;3.00;;;;;;;;;;6005362;23;20212;-86
2021/01/28 18:03:48;;;;;;;4.40;3.20;;;;;;;;;;6053810;23;20183;-87
2021/01/28 18:06:25;;;;;;;4.85;3.53;;;;;;;;;;6027330;23;20590;-86
2021/01/28 18:08:52;;;;;;;3.47;3.13;;;;;;;;;;6031998;23;20158;-87
2021/01/28 18:11:20;;;;;;;5.70;3.60;;;;;;;;;;6073455;23;20186;-85
2021/01/28 18:13:54;;;;;;;6.07;4.80;;;;;;;;;;6079387;23;20139;-87
2021/01/28 18:16:23;;;;;;;4.97;3.53;;;;;;;;;;6153553;23;20146;-84
2021/01/28 18:19:28;;;;;;;;;;;;;;;;;;;;;
2021/01/28 18:22:15;;;;;;;9.80;4.13;;;;;;;;;;6224004;23;20161;-84
2021/01/28 18:24:43;;;;;;;6.90;3.75;;;;;;;;;;6224066;23;20222;-83
2021/01/28 18:27:42;;;;;;;6.53;4.32;;;;;;;;;;6227376;23;20150;-87
2021/01/28 18:30:09;;;;;;;3.72;3.42;;;;;;;;;;6176419;23;20242;-84
2021/01/28 18:33:04;;;;;;;;;;;;;;;;;;;;;
2021/01/28 18:35:49;;;;;;;6.10;3.20;;;;;;;;;;6233846;23;20123;-82
2021/01/28 18:38:45;;;;;;;;;;;;;;;;;;;;;
2021/01/28 18:41:15;;;;;;;3.90;3.35;;;;;;;;;;6228345;23;20724;-83
2021/01/28 18:43:48;;;;;;;19.52;4.20;;;;;;;;;;6224333;23;20508;-80
2021/01/28 18:46:32;;;;;;;7.25;5.60;;;;;;;;;;6174001;23;20142;-82
2021/01/28 18:49:29;;;;;;;;;;;;;;;;;;;;;
2021/01/28 18:52:13;;;;;;;3.85;3.50;;;;;;;;;;6223840;23;20165;-82
2021/01/28 18:56:07;;;;;;;2.92;2.70;;;;;;;;;;6216305;23;20528;-83
2021/01/28 18:58:09;;;;;;;4.70;2.10;;;;;;;;;;6181175;23;20154;-80
2021/01/28 19:01:02;;;;;;;;;;;;;;;;;;;;;
2021/01/28 19:03:29;;;;;;;2.35;2.15;;;;;;;;;;6197251;23;20201;-83
2021/01/28 19:09:28;;;;;;;6.18;3.03;;;;;;;;;;6222538;23;20206;-83
2021/01/28 19:12:08;;;;;;;4.50;2.30;;;;;;;;;;6228461;23;20619;-81
2021/01/28 19:14:38;;;;;;;5.57;2.15;;;;;;;;;;6174829;23;20225;-82
2021/01/28 19:17:09;;;;;;;3.65;2.40;;;;;;;;;;6197469;23;20641;-82
2021/01/28 19:19:52;;;;;;;2.08;1.95;;;;;;;;;;6199674;23;20202;-82
2021/01/28 19:22:34;;;;;;;;;;;;;;;;;;;;;
2021/01/28 19:25:14;;;;;;;5.97;3.63;;;;;;;;;;6198569;23;20229;-84
2021/01/28 19:27:45;;;;;;;4.38;2.88;;;;;;;;;;6172169;23;20150;-81
2021/01/28 19:30:17;;;;;;;5.90;2.85;;;;;;;;;;6224229;23;20194;-85
2021/01/28 19:32:59;;;;;;;8.60;4.07;;;;;;;;;;6173570;23;20151;-85
2021/01/28 19:35:43;;;;;;;4.45;3.17;;;;;;;;;;6188959;23;20173;-82
2021/01/28 19:38:16;;;;;;;2.90;2.70;;;;;;;;;;6198232;23;20131;-82
2021/01/28 19:40:51;;;;;;;6.40;3.50;;;;;;;;;;6223956;23;20184;-84
2021/01/28 19:43:19;;;;;;;5.72;3.40;;;;;;;;;;6196538;23;20150;-82
2021/01/28 19:45:55;;;;;;;;;;;;;;;;;;;;;
2021/01/28 19:48:32;;;;;;;;;;;;;;;;;;;;;
2021/01/28 19:51:08;;;;;;;2.22;2.00;;;;;;;;;;6224438;23;20624;-80
2021/01/28 19:53:44;;;;;;;3.17;2.88;;;;;;;;;;6200318;23;20139;-83
2021/01/28 19:56:34;;;;;;;6.40;3.40;;;;;;;;;;6229108;23;20147;-83
2021/01/28 19:59:19;;;;;;;7.18;3.22;;;;;;;;;;6171611;23;20147;-83
2021/01/28 20:01:58;;;;;;;3.33;2.53;;;;;;;;;;6171671;23;20173;-84
2021/01/28 20:08:17;;;;;;;3.80;3.25;;;;;;;;;;6215319;23;20187;-84
2021/01/28 20:10:51;;;;;;;6.50;2.85;;;;;;;;;;6170992;23;20232;-84
2021/01/28 20:13:47;;;;;;;;;;;;;;;;;;;;;
2021/01/28 20:16:37;;;;;;;;;;;;;;;;;;;;;
2021/01/28 20:19:05;;;;;;;4.38;3.55;;;;;;;;;;6197206;23;20193;-83
2021/01/28 20:21:43;;;;;;;4.13;3.58;;;;;;;;;;6195564;23;20174;-82
2021/01/28 20:24:10;;;;;;;5.03;3.15;;;;;;;;;;6198068;23;20158;-82
2021/01/28 20:26:52;;;;;;;3.17;2.95;;;;;;;;;;6197669;23;20166;-82
2021/01/28 20:29:19;;;;;;;6.38;4.35;;;;;;;;;;6224280;23;20569;-81
2021/01/28 20:31:50;;;;;;;4.40;4.10;;;;;;;;;;6202179;23;20150;-82
2021/01/28 20:34:19;;;;;;;4.50;3.83;;;;;;;;;;6227159;23;20145;-83
2021/01/28 20:36:50;;;;;;;3.60;3.35;;;;;;;;;;6175368;23;20242;-83
2021/01/28 20:39:22;;;;;;;8.32;3.88;;;;;;;;;;6236789;23;20139;-79
2021/01/28 20:41:52;;;;;;;6.32;4.45;;;;;;;;;;6212760;23;20143;-84
2021/01/28 20:44:18;;;;;;;4.97;4.40;;;;;;;;;;6227777;23;20151;-81
2021/01/28 20:46:58;;;;;;;8.10;4.00;;;;;;;;;;6223291;23;20158;-83
2021/01/28 20:49:25;;;;;;;4.32;3.30;;;;;;;;;;6169752;23;20573;-82
2021/01/28 20:52:21;;;;;;;;;;;;;;;;;;;;;
2021/01/28 20:54:59;;;;;;;6.50;3.35;;;;;;;;;;6224135;23;20212;-83
2021/01/28 20:57:26;;;;;;;4.72;3.78;;;;;;;;;;6173969;23;20161;-83
2021/01/28 20:59:52;;;;;;;3.28;2.22;;;;;;;;;;6211128;23;20166;-83
2021/01/28 21:02:23;;;;;;;4.10;3.80;;;;;;;;;;6174987;23;20193;-83
2021/01/28 21:05:08;;;;;;;4.47;3.92;;;;;;;;;;6187139;23;20181;-82
2021/01/28 21:07:35;;;;;;;7.25;4.70;;;;;;;;;;6241564;23;20135;-83
2021/01/28 21:10:28;;;;;;;6.03;4.50;;;;;;;;;;6234957;23;20186;-84
2021/01/28 21:13:01;;;;;;;4.53;3.85;;;;;;;;;;6189082;23;20584;-83
2021/01/28 21:15:29;;;;;;;8.55;3.42;;;;;;;;;;6211040;23;20230;-83
2021/01/28 21:18:05;;;;;;;5.30;3.97;;;;;;;;;;6189628;22;20196;-84
2021/01/28 21:21:12;;;;;;;7.30;3.60;;;;;;;;;;6309368;22;20151;-81
2021/01/28 21:23:41;;;;;;;4.38;3.97;;;;;;;;;;6301625;22;20140;-84
2021/01/28 21:26:09;;;;;;;5.50;2.60;;;;;;;;;;6299098;22;20144;-84
2021/01/28 21:28:50;;;;;;;4.72;2.97;;;;;;;;;;6323933;22;20132;-81
2021/01/28 21:31:25;;;;;;;3.50;3.20;;;;;;;;;;6320127;22;20164;-85
2021/01/28 21:33:51;;;;;;;3.50;2.90;;;;;;;;;;6318155;22;20183;-82
2021/01/28 21:36:31;;;;;;;12.68;3.45;;;;;;;;;;6293857;22;20149;-82
2021/01/28 21:39:03;;;;;;;5.80;2.90;;;;;;;;;;6294903;22;20135;-84
2021/01/28 21:41:32;;;;;;;3.05;2.85;;;;;;;;;;6319067;22;20194;-82
2021/01/28 21:43:59;;;;;;;9.25;3.47;;;;;;;;;;6296094;22;20148;-82
2021/01/28 21:46:25;;;;;;;4.28;2.58;;;;;;;;;;6289002;22;20152;-83
2021/01/28 21:48:52;;;;;;;7.63;3.22;;;;;;;;;;6314722;22;20140;-82
2021/01/28 21:51:24;;;;;;;5.75;2.88;;;;;;;;;;6314120;22;20218;-84
2021/01/28 21:53:51;;;;;;;4.45;4.07;;;;;;;;;;6289701;22;20133;-83
2021/01/28 21:56:17;;;;;;;2.80;2.60;;;;;;;;;;6317791;22;20208;-81
2021/01/28 21:58:44;;;;;;;2.92;2.67;;;;;;;;;;6298643;22;20172;-83
2021/01/28 22:01:26;;;;;;;4.55;4.20;;;;;;;;;;6316596;22;20195;-83
2021/01/28 22:04:14;;;;;;;4.30;2.45;;;;;;;;;;6292520;22;20155;-82
2021/01/28 22:06:40;;;;;;;3.55;3.25;;;;;;;;;;6318343;22;20141;-83
2021/01/28 22:09:07;;;;;;;11.68;2.97;;;;;;;;;;6319520;22;20141;-81
2021/01/28 22:11:54;;;;;;;3.03;2.15;;;;;;;;;;6290992;22;20169;-83
2021/01/28 22:14:31;;;;;;;5.07;2.50;;;;;;;;;;6263661;22;20144;-83
2021/01/28 22:17:14;;;;;;;6.63;3.33;;;;;;;;;;6303315;22;20109;-81
2021/01/28 22:19:55;;;;;;;4.22;3.55;;;;;;;;;;6278703;22;20238;-79
2021/01/28 22:22:25;;;;;;;5.50;2.53;;;;;;;;;;6296593;22;20159;-82
2021/01/28 22:24:54;;;;;;;6.47;2.38;;;;;;;;;;6319426;22;20143;-82
2021/01/28 22:27:39;;;;;;;;;;;;;;;;;;;;;
2021/01/28 22:30:16;;;;;;;3.95;2.30;;;;;;;;;;6290595;22;20184;-83
2021/01/28 22:33:06;;;;;;;5.43;2.30;;;;;;;;;;6291224;22;20155;-83
2021/01/28 22:35:56;;;;;;;;;;;;;;;;;;;;;
2021/01/28 22:38:26;;;;;;;5.13;2.55;;;;;;;;;;6286560;22;20145;-82
2021/01/28 22:40:59;;;;;;;2.67;2.42;;;;;;;;;;6263362;22;20164;-84
2021/01/28 22:43:52;;;;;;;;;;;;;;;;;;;;;
2021/01/28 22:46:19;;;;;;;4.47;3.05;;;;;;;;;;6317927;22;20224;-83
2021/01/28 22:48:46;;;;;;;4.30;2.67;;;;;;;;;;6298441;22;20185;-80
2021/01/28 22:51:14;;;;;;;6.63;3.15;;;;;;;;;;6303345;22;20180;-80
2021/01/28 22:53:47;;;;;;;2.97;2.55;;;;;;;;;;6299753;22;20121;-83
2021/01/28 22:56:16;;;;;;;6.38;2.25;;;;;;;;;;6289979;22;20194;-83
2021/01/28 22:59:01;;;;;;;;;;;;;;;;;;;;;
2021/01/28 23:01:39;;;;;;;3.55;3.20;;;;;;;;;;6288115;22;20164;-82
2021/01/28 23:04:34;;;;;;;;;;;;;;;;;;;;;
2021/01/28 23:07:35;;;;;;;8.13;3.60;;;;;;;;;;6318631;22;20139;-82
2021/01/28 23:10:18;;;;;;;3.83;3.10;;;;;;;;;;6272109;22;20187;-83
2021/01/28 23:12:47;;;;;;;3.70;3.05;;;;;;;;;;6270874;22;20204;-83
2021/01/28 23:15:36;;;;;;;;;;;;;;;;;;;;;
2021/01/28 23:22:28;;;;;;;;;;;;;;;;;;;;;
2021/01/28 23:29:31;;;;;;;;;;;;;;;;;;;;;
2021/01/28 23:32:19;;;;;;;4.90;2.75;;;;;;;;;;6134411;23;20238;-81
2021/01/28 23:35:55;;;;;;;;;;;;;;;;;;;;;
2021/01/28 23:39:05;;;;;;;9.90;3.33;;;;;;;;;;6045891;23;20193;-84
2021/01/28 23:52:22;;;;;;;2.78;2.47;;;;;;;;;;5960625;24;20171;-83
